Pajarito, New Mexico
Current Conditions -  °F | °C
As of 9:15 PM on Saturday 25 Oct 2014 (Local Time) from KLAM Reporting Station
Clear Clear  
Wind Chill: 16°   Ceiling: Unl
Heat Index: 16°   Visibility: 10mi
Dew Point: -2°   Wind: 10mph
Humidity: 28%   Direction: 260°W
Pressure: 30.29"   Gusts: NA
Location:  35.9775°N, 106.158°W
Report Text: KLAM 260315Z AUTO 26009KT 10SM CLR 17/M02 A3029 RMK AO2 T01651024
Loading
Personal Weather Stations






























Interactive Weather Map
Tropical Storm Tracking
New forecast layout! Learn more

10-Day Weather Forecast

Advertisements
Track Severe Weather on mobile